createdAt,value
2023-03-03T00:04:00.471Z,17.1
2023-03-03T00:09:53.187Z,17.1
2023-03-03T00:15:46.494Z,17.1
2023-03-03T00:21:39.558Z,17.1
2023-03-03T00:27:32.611Z,17.1
2023-03-03T00:32:54.025Z,17.1
2023-03-03T00:38:30.976Z,17.1
2023-03-03T00:44:24.188Z,17.1
2023-03-03T00:50:17.595Z,17.1
2023-03-03T00:56:10.853Z,17.1
2023-03-03T01:01:33.442Z,17.1
2023-03-03T01:13:03.707Z,17.1
2023-03-03T02:34:00.363Z,16.9
2023-03-03T02:39:38.025Z,16.9
2023-03-03T02:45:14.742Z,16.9
2023-03-03T02:51:07.435Z,16.9
2023-03-03T02:56:45.203Z,16.9
2023-03-03T03:02:22.513Z,16.9
2023-03-03T03:07:58.809Z,16.9
2023-03-03T03:13:21.149Z,16.9
2023-03-03T03:18:57.893Z,16.9
2023-03-03T03:24:34.996Z,16.9
2023-03-03T03:30:13.052Z,16.9
2023-03-03T03:36:05.791Z,16.9
2023-03-03T03:41:26.483Z,16.9
2023-03-03T03:47:19.581Z,16.9
2023-03-03T03:52:56.003Z,16.9
2023-03-03T03:58:33.789Z,16.9
2023-03-03T04:04:27.349Z,16.9
2023-03-03T04:10:19.531Z,16.9
2023-03-03T04:15:56.786Z,16.9
2023-03-03T04:21:53.690Z,16.9
2023-03-03T04:27:46.641Z,16.9
2023-03-03T04:33:26.936Z,16.9
2023-03-03T04:39:16.709Z,16.9
2023-03-03T04:45:11.820Z,16.9
2023-03-03T04:51:06.798Z,16.9
2023-03-03T04:56:59.774Z,16.9
2023-03-03T05:02:37.145Z,16.9
2023-03-03T05:08:15.315Z,16.9
2023-03-03T05:14:09.129Z,16.9
2023-03-03T05:20:01.689Z,16.9
2023-03-03T05:25:54.829Z,16.9
2023-03-03T05:31:48.170Z,16.9
2023-03-03T05:37:26.437Z,16.8
2023-03-03T05:43:19.587Z,16.8
2023-03-03T05:49:13.311Z,16.8
2023-03-03T05:55:05.040Z,16.8
2023-03-03T06:00:58.249Z,16.8
2023-03-03T06:06:52.441Z,16.8
2023-03-03T06:12:30.257Z,16.8
2023-03-03T06:18:24.802Z,16.8
2023-03-03T06:24:18.970Z,16.8
2023-03-03T06:30:11.998Z,16.8
2023-03-03T06:35:49.853Z,16.8
2023-03-03T06:41:43.694Z,16.8
2023-03-03T06:47:36.510Z,16.8
2023-03-03T06:53:13.962Z,16.8
2023-03-03T06:59:06.949Z,16.8
2023-03-03T07:04:45.380Z,16.8
2023-03-03T07:10:37.854Z,16.8
2023-03-03T07:16:34.322Z,16.8
2023-03-03T07:22:27.854Z,16.8
2023-03-03T07:28:20.598Z,16.8
2023-03-03T07:33:59.201Z,16.8
2023-03-03T07:39:56.543Z,16.8
2023-03-03T07:45:48.479Z,16.8
2023-03-03T07:51:42.601Z,16.8
2023-03-03T07:57:35.397Z,16.8
2023-03-03T08:03:27.784Z,16.8
2023-03-03T08:09:07.335Z,16.8
2023-03-03T08:15:00.532Z,16.8
2023-03-03T08:20:53.148Z,16.8
2023-03-03T08:26:46.626Z,16.8
2023-03-03T08:33:04.357Z,16.8
2023-03-03T08:38:58.328Z,16.8
2023-03-03T08:44:52.464Z,16.8
2023-03-03T08:50:45.945Z,16.8
2023-03-03T08:56:39.355Z,16.7
2023-03-03T09:02:47.450Z,16.7
2023-03-03T09:08:40.477Z,16.8
2023-03-03T09:14:33.193Z,16.7
2023-03-03T09:20:27.178Z,16.7
2023-03-03T09:26:19.855Z,16.7
2023-03-03T09:32:13.853Z,16.7
2023-03-03T09:38:07.115Z,16.7
2023-03-03T09:43:59.462Z,16.7
2023-03-03T09:49:42.961Z,16.7
2023-03-03T09:55:41.708Z,16.7
2023-03-03T10:01:50.631Z,16.7
2023-03-03T10:07:48.028Z,16.7
2023-03-03T10:13:42.522Z,16.7
2023-03-03T10:19:39.290Z,16.6
2023-03-03T10:25:41.494Z,16.7
2023-03-03T10:32:18.643Z,16.7
2023-03-03T10:38:26.442Z,16.7
2023-03-03T10:44:36.086Z,16.6
2023-03-03T10:50:30.966Z,16.6
2023-03-03T10:56:23.833Z,16.6
2023-03-03T11:02:30.819Z,16.6
2023-03-03T11:08:28.601Z,16.6
2023-03-03T11:14:06.712Z,16.6
2023-03-03T11:20:01.003Z,16.6
2023-03-03T11:25:54.514Z,16.6
2023-03-03T11:31:48.601Z,16.6
2023-03-03T11:37:42.062Z,16.6
2023-03-03T11:43:34.075Z,16.6
2023-03-03T11:49:29.309Z,16.6
2023-03-03T11:55:23.811Z,16.6
2023-03-03T12:01:20.489Z,16.6
2023-03-03T12:07:18.854Z,16.6
2023-03-03T12:13:15.055Z,16.6
2023-03-03T12:18:53.217Z,16.6
2023-03-03T12:25:01.965Z,16.6
2023-03-03T12:30:55.914Z,16.6
2023-03-03T12:36:50.312Z,16.6
2023-03-03T12:42:56.637Z,16.6
2023-03-03T12:48:50.490Z,16.6
2023-03-03T12:54:55.496Z,16.6
2023-03-03T13:00:48.591Z,16.6
2023-03-03T13:06:46.810Z,16.6
2023-03-03T13:12:43.554Z,16.6
2023-03-03T13:18:59.497Z,16.6
2023-03-03T13:24:52.573Z,16.6
2023-03-03T13:30:46.405Z,16.6
2023-03-03T13:36:25.723Z,16.6
2023-03-03T13:42:18.898Z,16.5
2023-03-03T13:48:11.857Z,16.5
2023-03-03T13:54:04.162Z,16.5
2023-03-03T13:59:57.759Z,16.5
2023-03-03T14:05:52.205Z,16.5
2023-03-03T14:11:44.929Z,16.5
2023-03-03T14:17:39.236Z,16.5
2023-03-03T14:23:32.851Z,16.5
2023-03-03T14:29:25.615Z,16.5
2023-03-03T14:35:35.332Z,16.5
2023-03-03T14:41:28.901Z,16.5
2023-03-03T14:47:25.597Z,16.5
2023-03-03T14:53:20.172Z,16.5
2023-03-03T14:59:14.449Z,16.5
2023-03-03T15:04:54.538Z,16.4
2023-03-03T15:10:34.231Z,16.5
2023-03-03T15:16:12.073Z,16.5
2023-03-03T15:21:49.168Z,16.5
2023-03-03T15:27:40.653Z,16.4
2023-03-03T15:33:21.621Z,16.5
2023-03-03T15:38:57.984Z,16.4
2023-03-03T15:44:51.444Z,16.4
2023-03-03T15:50:14.799Z,16.4
2023-03-03T15:56:16.520Z,16.4
2023-03-03T16:01:54.403Z,16.4
2023-03-03T16:07:47.360Z,16.4
2023-03-03T16:13:41.429Z,16.4
2023-03-03T16:19:34.901Z,16.4
2023-03-03T16:25:29.255Z,16.4
2023-03-03T16:31:08.212Z,16.4
2023-03-03T16:37:02.511Z,16.4
2023-03-03T16:42:55.784Z,16.4
2023-03-03T16:48:48.372Z,16.4
2023-03-03T17:00:02.120Z,16.4
2023-03-03T17:05:54.624Z,16.4
2023-03-03T17:11:45.024Z,16.4
2023-03-03T17:17:35.655Z,16.4
2023-03-03T17:23:28.730Z,16.4
2023-03-03T17:29:22.435Z,16.4
2023-03-03T17:35:16.319Z,16.4
2023-03-03T17:40:54.701Z,16.4
2023-03-03T17:46:49.555Z,16.4
2023-03-03T17:52:42.525Z,16.4
2023-03-03T17:58:35.709Z,16.4
2023-03-03T18:04:28.369Z,16.4
2023-03-03T18:10:20.725Z,16.4
2023-03-03T18:16:27.646Z,16.4
2023-03-03T18:22:07.967Z,16.3
2023-03-03T18:28:02.270Z,16.3
2023-03-03T18:33:54.901Z,16.3
2023-03-03T18:39:47.609Z,16.3
2023-03-03T18:45:40.516Z,16.3
2023-03-03T18:51:33.361Z,16.3
2023-03-03T18:57:25.500Z,16.3
2023-03-03T19:02:47.293Z,16.3
2023-03-03T19:08:41.109Z,16.3
2023-03-03T19:14:18.188Z,16.3
2023-03-03T19:19:55.259Z,16.3
2023-03-03T19:25:51.199Z,16.3
2023-03-03T19:31:44.064Z,16.3
2023-03-03T19:37:37.844Z,16.3
2023-03-03T19:43:34.235Z,16.3
2023-03-03T19:49:27.943Z,16.3
2023-03-03T19:55:19.792Z,16.3
2023-03-03T20:01:13.001Z,16.3
2023-03-03T20:07:06.482Z,16.3
2023-03-03T20:12:59.656Z,16.3
2023-03-03T20:18:54.093Z,16.3
2023-03-03T20:24:45.667Z,16.3
2023-03-03T20:30:39.172Z,16.3
2023-03-03T20:36:32.218Z,16.3
2023-03-03T20:42:09.483Z,16.3
2023-03-03T20:48:02.830Z,16.3
2023-03-03T20:53:56.108Z,16.3
2023-03-03T20:59:47.436Z,16.3
2023-03-03T21:05:39.896Z,16.3
2023-03-03T21:11:01.561Z,16.3
2023-03-03T21:16:57.133Z,16.3
2023-03-03T21:28:30.025Z,16.3
2023-03-03T21:34:26.085Z,16.2
2023-03-03T21:40:19.512Z,16.2
2023-03-03T21:46:12.692Z,16.2
2023-03-03T21:51:50.358Z,16.3
2023-03-03T21:57:27.781Z,16.2
2023-03-03T22:03:21.662Z,16.2
2023-03-03T22:09:15.830Z,16.2
2023-03-03T22:15:08.290Z,16.2
2023-03-03T22:21:01.117Z,16.2
2023-03-03T22:26:54.075Z,16.2
2023-03-03T22:32:48.031Z,16.2
2023-03-03T22:38:40.931Z,16.2
2023-03-03T22:44:34.038Z,16.2
2023-03-03T22:50:25.439Z,16.2
2023-03-03T22:56:17.951Z,16.2
2023-03-03T23:02:10.943Z,16.2
2023-03-03T23:13:42.057Z,16.2
2023-03-03T23:19:34.123Z,16.2
2023-03-03T23:25:11.346Z,16.1
2023-03-03T23:31:03.211Z,16.2
2023-03-03T23:36:40.169Z,16.2
2023-03-03T23:42:32.308Z,16.1
2023-03-03T23:48:24.844Z,16.1
2023-03-03T23:54:18.147Z,16.1
